NCAR-RAP Real-Time Weather Data

Output produced by METARs form (24 April 2018  16:26 UTC)
found at http://weather.rap.ucar.edu/surface/
 
RJOM 241216Z 33007KT 300V360 2000 R14/2000N +SHRA BR PRFG FEW002 BKN008 BKN020 17/17 Q1003 RMK 1ST002 5ST008 6CU020 A2962 1000NW-N FG BANK NW-N RI++
RJOM 241204Z 34007KT 2000 R14/0900V1700U SHRA BR PRFG FEW003 SCT010 BKN020 18/18 Q1002 RMK 1ST003 4ST010 6CU020 A2961 1000NW-N FG BANK NW-N
RJOM 241200Z 35006KT 2000 R14/0800V1700U SHRA BR PRFG FEW003 SCT010 BKN020 18/18 Q1002
RJOM 241100Z 32004KT 270V340 3500 SHRA BR FEW005 SCT020 BKN035 18/18 Q1003
RJOM 241000Z 13004KT 100V180 5000 SHRA BR FEW005 SCT025 BKN050 20/19 Q1003
RJOM 240941Z 19005KT 6000 -SHRA FEW005 SCT025 BKN050 20/19 Q1003 RMK 1ST005 4CU025 6SC050 A2962
RJOM 240927Z 18005KT 4500 SHRA BR FEW005 SCT020 BKN040 20/19 Q1003 RMK 1ST005 4CU020 5CU040 A2963
RJOM 240900Z 21006KT 160V240 7000 -SHRA FEW005 SCT025 BKN045 21/18 Q1003
RJOM 240800Z 16006KT 9999 -SHRA FEW010 SCT025 BKN050 21/20 Q1003
RJOM 240700Z 22004KT 150V250 9999 -SHRA FEW007 SCT035 BKN060 22/19 Q1003
RJOM 240633Z 15009KT 9999 -SHRA FEW006 SCT035 BKN050 21/20 Q1003 RMK 1ST006 3CU035 5SC050 A2964
RJOM 240618Z 15008KT 7000 SHRA FEW006 SCT030 BKN050 21/19 Q1004 RMK 1ST006 4CU030 5SC050 A2965
RJOM 240600Z 13009KT 4500 SHRA BR FEW004 SCT030 BKN040 20/20 Q1004
RJOM 240540Z VRB02KT 6000 -SHRA FEW004 SCT030 BKN040 20/19 Q1004 RMK 1ST004 4CU030 5CU040 A2967
RJOM 240500Z 14006KT 4000 SHRA BR FEW004 BKN030 BKN040 20/19 Q1005
RJOM 240436Z 22003KT 160V330 4500 SHRA BR FEW004 BKN030 BKN040 20/18 Q1005 RMK 1ST004 5CU030 6CU040 A2970
RJOM 240420Z VRB03KT 7000 -SHRA FEW004 SCT030 BKN050 19/18 Q1005 RMK 1ST004 4CU030 6SC050 A2970
RJOM 240400Z 30006KT 200V360 6000 SHRA FEW004 BKN020 BKN040 19/17 Q1006
RJOM 240341Z 33006KT 280V360 6000 R14/2000N SHRA FEW004 BKN020 BKN035 18/18 Q1006 RMK 1ST004 5CU020 6CU035 A2972
RJOM 240321Z 02004KT 330V110 3000 R14/1300VP2000D SHRA BR FEW004 BKN020 BKN045 19/18 Q1006 RMK 1ST004 5CU020 7SC045 A2972
RJOM 240314Z 02003KT 310V110 3000 R14/1300VP2000D +SHRA BR FEW004 BKN020 BKN045 18/18 Q1006 RMK 1ST004 5CU020 7SC045 A2972
RJOM 240300Z 01005KT 330V050 5000 R14/2000N -RA BR FEW004 BKN025 BKN045 18/18 Q1006
RJOM 240230Z 01006KT 4500 R14/2000N -RA BR FEW004 BKN025 BKN045 17/17 Q1007 RMK 1ST004 5CU025 6SC045 A2975
RJOM 240224Z 36008KT 4000 R14/1900N -RA BR FEW004 BKN025 BKN045 16/16 Q1007 RMK 1ST004 5CU025 6SC045 A2976
RJOM 240200Z 02004KT 5000 -RA BR FEW004 BKN030 BKN050 19/18 Q1008
RJOM 240127Z 01007KT 5000 -RA BR FEW004 BKN030 BKN050 18/18 Q1008 RMK 1ST004 5CU030 6SC050 A2979
RJOM 240112Z 02007KT 4000 RA BR FEW004 SCT012 BKN050 17/17 Q1009 RMK 1ST004 4ST012 6SC050 A2979
RJOM 240100Z 01009KT 2500 R14/2000N RA BR FEW004 SCT012 BKN050 17/16 Q1009
RJOM 240048Z 36008KT 2500 R14/1900D RA BR FEW004 SCT012 BKN045 17/16 Q1009 RMK 1ST004 4ST012 6SC045 A2981
RJOM 240045Z 36009KT 3000 R14/2000N RA BR FEW004 SCT012 BKN045 17/16 Q1009 RMK 1ST004 4ST012 6SC045 A2981
RJOM 240025Z 01006KT 4000 R14/2000N RA BR FEW005 SCT020 BKN040 17/17 Q1009 RMK 1ST005 4CU020 6SC040 A2980
RJOM 240000Z 02005KT 7000 -RA FEW005 SCT020 BKN040 18/17 Q1009
RJOM 232300Z 01005KT 9000 -RA FEW005 BKN050 BKN070 18/17 Q1009
RJOM 232200Z 01007KT 8000 -RA FEW020 BKN050 BKN070 16/16 Q1010
RJOM 232110Z 01005KT 9999 -RA FEW020 BKN050 BKN070 17/16 Q1010 RMK 1CU020 5SC050 6AC070 A2984
RJOM 231200Z 01007KT 9999 FEW025 SCT040 BKN070 19/14 Q1015
RJOM 231100Z 02004KT 9999 FEW025 SCT040 BKN080 19/13 Q1015
RJOM 231000Z 35005KT 9999 FEW030 SCT050 BKN100 18/14 Q1014
RJOM 230900Z VRB02KT 9999 FEW030 SCT050 BKN090 19/13 Q1014
RJOM 230800Z 25004KT 220V310 9999 -RA FEW030 BKN050 BKN100 18/14 Q1014
RJOM 230700Z VRB02KT 9999 -RA FEW030 SCT070 BKN100 19/14 Q1014
RJOM 230600Z 34006KT 9999 FEW030 SCT070 BKN090 19/13 Q1015
RJOM 230500Z 36008KT 9999 FEW030 BKN080 BKN120 22/13 Q1015
RJOM 230400Z 01008KT 9999 FEW030 SCT080 BKN130 22/13 Q1016
RJOM 230300Z 36011KT 9999 FEW030 SCT080 BKN130 21/13 Q1017
RJOM 230200Z 36010KT 9999 FEW030 BKN140 BKN/// 21/13 Q1017
RJOM 230100Z 36009KT 9999 FEW030 SCT130 BKN/// 22/13 Q1017
RJOM 230000Z 36008KT 9999 FEW035 SCT130 20/13 Q1018
RJOM 222300Z 36006KT 9999 FEW035 BKN/// 19/12 Q1018
RJOM 222200Z 11009KT 9999 FEW045 SCT/// 17/12 Q1018
RJOM 222110Z 12008KT 9999 FEW045 BKN080 16/12 Q1018 RMK 1SC045 5AC080 A3008
RJOM 221200Z 02004KT 9999 FEW060 18/14 Q1018
RJOM 221100Z 01005KT 9999 FEW060 18/14 Q1017
RJOM 221000Z 00000KT 9999 FEW035 19/13 Q1017
RJOM 220900Z 23002KT 9999 FEW035 20/13 Q1017
RJOM 220800Z 22004KT 9999 FEW035 SCT/// 21/14 Q1017
RJOM 220700Z 22004KT 9999 FEW035 SCT/// 21/13 Q1017
RJOM 220600Z 23003KT 200V350 9999 FEW030 21/13 Q1018
RJOM 220500Z 31005KT 9999 FEW035 22/13 Q1018